sensor_id;sensor_type;location;lat;lon;timestamp;pressure;altitude;pressure_sealevel;temperature;humidity
18784;BME280;9520;50.954;6.968;2023-02-11T00:00:21;102915.00;;;14.50;42.07
18784;BME280;9520;50.954;6.968;2023-02-11T00:00:42;102941.63;;;14.71;41.85
18784;BME280;9520;50.954;6.968;2023-02-11T00:01:06;102902.56;;;14.43;41.90
18784;BME280;9520;50.954;6.968;2023-02-11T00:02:09;102840.41;;;14.12;42.21
18784;BME280;9520;50.954;6.968;2023-02-11T00:03:06;102867.97;;;14.34;42.25
18784;BME280;9520;50.954;6.968;2023-02-11T00:03:28;102862.63;;;14.29;42.17
18784;BME280;9520;50.954;6.968;2023-02-11T00:03:51;102935.44;;;14.75;42.16
18784;BME280;9520;50.954;6.968;2023-02-11T00:04:14;102931.88;;;14.72;42.10
18784;BME280;9520;50.954;6.968;2023-02-11T00:04:38;102932.75;;;14.70;41.93
18784;BME280;9520;50.954;6.968;2023-02-11T00:05:00;102939.91;;;14.75;41.94
18784;BME280;9520;50.954;6.968;2023-02-11T00:05:23;102933.69;;;14.76;41.86
18784;BME280;9520;50.954;6.968;2023-02-11T00:05:45;102928.38;;;14.74;41.90
18784;BME280;9520;50.954;6.968;2023-02-11T00:06:18;102929.28;;;14.75;41.89
18784;BME280;9520;50.954;6.968;2023-02-11T00:06:40;102915.06;;;14.71;41.90
18784;BME280;9520;50.954;6.968;2023-02-11T00:07:03;102929.28;;;14.79;41.85
18784;BME280;9520;50.954;6.968;2023-02-11T00:07:27;102923.06;;;14.79;41.85
18784;BME280;9520;50.954;6.968;2023-02-11T00:07:49;102924.84;;;14.78;41.78
18784;BME280;9520;50.954;6.968;2023-02-11T00:08:11;102908.84;;;14.70;41.78
18784;BME280;9520;50.954;6.968;2023-02-11T00:08:38;102919.53;;;14.80;41.66
18784;BME280;9520;50.954;6.968;2023-02-11T00:09:02;102910.66;;;14.68;41.72
18784;BME280;9520;50.954;6.968;2023-02-11T00:09:23;102895.59;;;14.64;41.64
18784;BME280;9520;50.954;6.968;2023-02-11T00:09:45;102920.41;;;14.77;41.76
18784;BME280;9520;50.954;6.968;2023-02-11T00:10:08;102873.31;;;14.41;41.63
18784;BME280;9520;50.954;6.968;2023-02-11T00:10:31;102924.81;;;14.77;41.86
18784;BME280;9520;50.954;6.968;2023-02-11T00:10:55;102927.47;;;14.77;41.67
18784;BME280;9520;50.954;6.968;2023-02-11T00:11:19;102904.44;;;14.68;41.66
18784;BME280;9520;50.954;6.968;2023-02-11T00:11:42;102930.19;;;14.80;41.55
18784;BME280;9520;50.954;6.968;2023-02-11T00:12:05;102921.28;;;14.76;41.73
18784;BME280;9520;50.954;6.968;2023-02-11T00:12:27;102928.38;;;14.77;41.74
18784;BME280;9520;50.954;6.968;2023-02-11T00:12:50;102922.16;;;14.74;41.72
18784;BME280;9520;50.954;6.968;2023-02-11T00:13:14;102923.94;;;14.76;41.82
18784;BME280;9520;50.954;6.968;2023-02-11T00:13:37;102920.41;;;14.80;41.73
18784;BME280;9520;50.954;6.968;2023-02-11T00:14:01;102930.16;;;14.77;41.71
18784;BME280;9520;50.954;6.968;2023-02-11T00:14:24;102922.16;;;14.75;41.68
18784;BME280;9520;50.954;6.968;2023-02-11T00:14:50;102911.53;;;14.74;41.72
18784;BME280;9520;50.954;6.968;2023-02-11T00:15:12;102919.50;;;14.77;41.63
18784;BME280;9520;50.954;6.968;2023-02-11T00:15:36;102915.06;;;14.76;41.66
18784;BME280;9520;50.954;6.968;2023-02-11T00:16:04;102920.38;;;14.71;41.84
18784;BME280;9520;50.954;6.968;2023-02-11T00:16:30;102879.56;;;14.45;41.93
18784;BME280;9520;50.954;6.968;2023-02-11T00:16:55;102921.25;;;14.67;41.91
18784;BME280;9520;50.954;6.968;2023-02-11T00:17:17;102912.41;;;14.66;41.94
18784;BME280;9520;50.954;6.968;2023-02-11T00:17:41;102923.03;;;14.63;41.97
18784;BME280;9520;50.954;6.968;2023-02-11T00:18:05;102915.88;;;14.53;42.06
18784;BME280;9520;50.954;6.968;2023-02-11T00:18:27;102922.97;;;14.57;42.18
18784;BME280;9520;50.954;6.968;2023-02-11T00:18:49;102917.69;;;14.59;42.02
18784;BME280;9520;50.954;6.968;2023-02-11T00:19:13;102922.13;;;14.60;42.22
18784;BME280;9520;50.954;6.968;2023-02-11T00:19:36;102921.22;;;14.61;42.08
18784;BME280;9520;50.954;6.968;2023-02-11T00:20:00;102920.34;;;14.62;42.16
18784;BME280;9520;50.954;6.968;2023-02-11T00:20:22;102915.94;;;14.59;42.06
18784;BME280;9520;50.954;6.968;2023-02-11T00:20:45;102901.72;;;14.57;42.00
18784;BME280;9520;50.954;6.968;2023-02-11T00:21:07;102923.03;;;14.63;41.90
18784;BME280;9520;50.954;6.968;2023-02-11T00:21:29;102920.34;;;14.62;42.03
18784;BME280;9520;50.954;6.968;2023-02-11T00:21:51;102918.59;;;14.59;42.12
18784;BME280;9520;50.954;6.968;2023-02-11T00:22:14;102905.28;;;14.59;42.06
18784;BME280;9520;50.954;6.968;2023-02-11T00:22:42;102914.09;;;14.52;42.15
18784;BME280;9520;50.954;6.968;2023-02-11T00:23:04;102915.00;;;14.56;42.09
18784;BME280;9520;50.954;6.968;2023-02-11T00:23:27;102916.81;;;14.58;42.10
18784;BME280;9520;50.954;6.968;2023-02-11T00:23:51;102887.50;;;14.39;42.17
18784;BME280;9520;50.954;6.968;2023-02-11T00:24:13;102915.91;;;14.55;42.10
18784;BME280;9520;50.954;6.968;2023-02-11T00:24:35;102916.81;;;14.58;42.08
18784;BME280;9520;50.954;6.968;2023-02-11T00:24:58;102916.81;;;14.58;42.17
18784;BME280;9520;50.954;6.968;2023-02-11T00:25:21;102908.78;;;14.52;42.30
18784;BME280;9520;50.954;6.968;2023-02-11T00:25:44;102907.00;;;14.48;42.25
18784;BME280;9520;50.954;6.968;2023-02-11T00:26:11;102897.28;;;14.49;42.15
18784;BME280;9520;50.954;6.968;2023-02-11T00:26:35;102908.81;;;14.58;42.19
18784;BME280;9520;50.954;6.968;2023-02-11T00:26:59;102914.13;;;14.58;42.06
18784;BME280;9520;50.954;6.968;2023-02-11T00:27:20;102911.47;;;14.58;42.28
18784;BME280;9520;50.954;6.968;2023-02-11T00:27:42;102917.66;;;14.60;42.21
18784;BME280;9520;50.954;6.968;2023-02-11T00:28:06;102906.13;;;14.49;42.18
18784;BME280;9520;50.954;6.968;2023-02-11T00:28:31;102905.25;;;14.50;42.28
18784;BME280;9520;50.954;6.968;2023-02-11T00:28:53;102894.59;;;14.43;42.25
18784;BME280;9520;50.954;6.968;2023-02-11T00:29:15;102906.13;;;14.51;42.22
18784;BME280;9520;50.954;6.968;2023-02-11T00:29:38;102915.00;;;14.53;42.25
18784;BME280;9520;50.954;6.968;2023-02-11T00:30:00;102914.13;;;14.57;42.18
18784;BME280;9520;50.954;6.968;2023-02-11T00:30:24;102905.25;;;14.56;42.23
18784;BME280;9520;50.954;6.968;2023-02-11T00:30:53;102908.81;;;14.57;42.23
18784;BME280;9520;50.954;6.968;2023-02-11T00:31:17;102907.94;;;14.59;42.16
18784;BME280;9520;50.954;6.968;2023-02-11T00:31:42;102911.50;;;14.60;42.03
18784;BME280;9520;50.954;6.968;2023-02-11T00:32:04;102899.97;;;14.58;42.09
18784;BME280;9520;50.954;6.968;2023-02-11T00:32:27;102902.63;;;14.59;42.26
18784;BME280;9520;50.954;6.968;2023-02-11T00:32:50;102908.81;;;14.61;42.07
18784;BME280;9520;50.954;6.968;2023-02-11T00:33:15;102910.59;;;14.62;42.07
18784;BME280;9520;50.954;6.968;2023-02-11T00:33:38;102907.94;;;14.62;41.98
18784;BME280;9520;50.954;6.968;2023-02-11T00:34:02;102906.19;;;14.64;42.04
18784;BME280;9520;50.954;6.968;2023-02-11T00:34:26;102904.44;;;14.65;41.97
18784;BME280;9520;50.954;6.968;2023-02-11T00:34:50;102911.53;;;14.69;41.98
18784;BME280;9520;50.954;6.968;2023-02-11T00:35:16;102911.53;;;14.69;41.86
18784;BME280;9520;50.954;6.968;2023-02-11T00:35:38;102893.78;;;14.60;41.92
18784;BME280;9520;50.954;6.968;2023-02-11T00:36:03;102886.66;;;14.53;41.94
18784;BME280;9520;50.954;6.968;2023-02-11T00:36:27;102875.13;;;14.44;42.07
18784;BME280;9520;50.954;6.968;2023-02-11T00:37:01;102908.84;;;14.67;42.28
18784;BME280;9520;50.954;6.968;2023-02-11T00:37:27;102883.16;;;14.54;42.34
18784;BME280;9520;50.954;6.968;2023-02-11T00:37:53;102910.66;;;14.68;42.25
18784;BME280;9520;50.954;6.968;2023-02-11T00:38:18;102902.66;;;14.64;42.26
18784;BME280;9520;50.954;6.968;2023-02-11T00:38:44;102909.75;;;14.71;42.18
18784;BME280;9520;50.954;6.968;2023-02-11T00:39:19;102910.63;;;14.72;42.04
18784;BME280;9520;50.954;6.968;2023-02-11T00:39:43;102831.66;;;14.33;42.06
18784;BME280;9520;50.954;6.968;2023-02-11T00:40:06;102910.66;;;14.75;42.04
18784;BME280;9520;50.954;6.968;2023-02-11T00:40:30;102887.53;;;14.55;41.84
18784;BME280;9520;50.954;6.968;2023-02-11T00:40:55;102905.34;;;14.75;41.85
18784;BME280;9520;50.954;6.968;2023-02-11T00:41:21;102910.66;;;14.75;41.79
18784;BME280;9520;50.954;6.968;2023-02-11T00:41:45;102900.00;;;14.72;41.90
18784;BME280;9520;50.954;6.968;2023-02-11T00:42:07;102902.66;;;14.67;42.04
18784;BME280;9520;50.954;6.968;2023-02-11T00:42:35;102828.09;;;14.27;42.02
18784;BME280;9520;50.954;6.968;2023-02-11T00:42:58;102876.06;;;14.55;41.99
18784;BME280;9520;50.954;6.968;2023-02-11T00:43:22;102884.03;;;14.62;41.95
18784;BME280;9520;50.954;6.968;2023-02-11T00:43:44;102903.53;;;14.70;42.05
18784;BME280;9520;50.954;6.968;2023-02-11T00:44:08;102907.09;;;14.71;42.04
18784;BME280;9520;50.954;6.968;2023-02-11T00:44:31;102906.19;;;14.70;41.94
18784;BME280;9520;50.954;6.968;2023-02-11T00:44:53;102894.66;;;14.65;41.88
18784;BME280;9520;50.954;6.968;2023-02-11T00:45:15;102890.25;;;14.63;42.10
18784;BME280;9520;50.954;6.968;2023-02-11T00:45:38;102882.25;;;14.57;42.21
18784;BME280;9520;50.954;6.968;2023-02-11T00:46:00;102897.38;;;14.70;42.16
18784;BME280;9520;50.954;6.968;2023-02-11T00:46:23;102901.75;;;14.66;42.16
18784;BME280;9520;50.954;6.968;2023-02-11T00:46:45;102899.13;;;14.68;42.23
18784;BME280;9520;50.954;6.968;2023-02-11T00:47:10;102890.25;;;14.66;42.09
18784;BME280;9520;50.954;6.968;2023-02-11T00:47:31;102897.34;;;14.68;42.22
18784;BME280;9520;50.954;6.968;2023-02-11T00:47:53;102892.00;;;14.65;42.12
18784;BME280;9520;50.954;6.968;2023-02-11T00:48:15;102891.13;;;14.66;42.19
18784;BME280;9520;50.954;6.968;2023-02-11T00:48:39;102899.13;;;14.68;42.00
18784;BME280;9520;50.954;6.968;2023-02-11T00:49:05;102896.47;;;14.68;42.08
18784;BME280;9520;50.954;6.968;2023-02-11T00:49:27;102889.38;;;14.64;42.01
18784;BME280;9520;50.954;6.968;2023-02-11T00:49:49;102895.56;;;14.67;42.05
18784;BME280;9520;50.954;6.968;2023-02-11T00:50:11;102894.66;;;14.65;42.06
18784;BME280;9520;50.954;6.968;2023-02-11T00:50:37;102825.41;;;14.17;42.08
18784;BME280;9520;50.954;6.968;2023-02-11T00:51:00;102868.94;;;14.45;42.23
18784;BME280;9520;50.954;6.968;2023-02-11T00:51:21;102890.19;;;14.55;42.22
18784;BME280;9520;50.954;6.968;2023-02-11T00:51:44;102868.06;;;14.44;42.32
18784;BME280;9520;50.954;6.968;2023-02-11T00:52:07;102892.91;;;14.58;42.40
18784;BME280;9520;50.954;6.968;2023-02-11T00:52:29;102887.56;;;14.58;42.48
18784;BME280;9520;50.954;6.968;2023-02-11T00:52:51;102817.47;;;14.15;42.37
18784;BME280;9520;50.954;6.968;2023-02-11T00:53:13;102871.59;;;14.46;42.41
18784;BME280;9520;50.954;6.968;2023-02-11T00:53:35;102887.53;;;14.49;42.35
18784;BME280;9520;50.954;6.968;2023-02-11T00:53:58;102891.06;;;14.48;42.54
18784;BME280;9520;50.954;6.968;2023-02-11T00:54:22;102864.41;;;14.30;42.79
18784;BME280;9520;50.954;6.968;2023-02-11T00:54:46;102861.75;;;14.32;42.85
18784;BME280;9520;50.954;6.968;2023-02-11T00:55:08;102879.56;;;14.45;42.81
18784;BME280;9520;50.954;6.968;2023-02-11T00:55:33;102878.72;;;14.50;42.87
18784;BME280;9520;50.954;6.968;2023-02-11T00:55:55;102880.47;;;14.50;42.76
18784;BME280;9520;50.954;6.968;2023-02-11T00:56:19;102845.81;;;14.32;42.66
18784;BME280;9520;50.954;6.968;2023-02-11T00:56:41;102891.09;;;14.54;42.67
18784;BME280;9520;50.954;6.968;2023-02-11T00:57:03;102885.78;;;14.57;42.58
18784;BME280;9520;50.954;6.968;2023-02-11T00:57:25;102883.16;;;14.59;42.51
18784;BME280;9520;50.954;6.968;2023-02-11T00:57:47;102886.69;;;14.61;42.52
18784;BME280;9520;50.954;6.968;2023-02-11T00:58:10;102878.75;;;14.59;42.46
18784;BME280;9520;50.954;6.968;2023-02-11T00:58:32;102884.03;;;14.58;42.48
18784;BME280;9520;50.954;6.968;2023-02-11T00:58:54;102883.16;;;14.57;42.63
18784;BME280;9520;50.954;6.968;2023-02-11T00:59:16;102885.78;;;14.60;42.73
18784;BME280;9520;50.954;6.968;2023-02-11T00:59:38;102883.16;;;14.62;42.59
18784;BME280;9520;50.954;6.968;2023-02-11T01:00:01;102881.38;;;14.62;42.48
18784;BME280;9520;50.954;6.968;2023-02-11T01:00:23;102848.56;;;14.42;42.49
18784;BME280;9520;50.954;6.968;2023-02-11T01:00:45;102883.16;;;14.63;42.45
18784;BME280;9520;50.954;6.968;2023-02-11T01:01:07;102885.84;;;14.65;42.32
18784;BME280;9520;50.954;6.968;2023-02-11T01:01:29;102888.47;;;14.66;42.42
18784;BME280;9520;50.954;6.968;2023-02-11T01:01:52;102867.19;;;14.50;42.29
18784;BME280;9520;50.954;6.968;2023-02-11T01:02:14;102887.63;;;14.64;42.36
18784;BME280;9520;50.954;6.968;2023-02-11T01:02:36;102886.72;;;14.64;42.26
18784;BME280;9520;50.954;6.968;2023-02-11T01:02:58;102882.28;;;14.64;42.40
18784;BME280;9520;50.954;6.968;2023-02-11T01:03:21;102881.38;;;14.56;42.38
18784;BME280;9520;50.954;6.968;2023-02-11T01:03:42;102882.28;;;14.63;42.48
18784;BME280;9520;50.954;6.968;2023-02-11T01:04:04;102885.84;;;14.63;42.40
18784;BME280;9520;50.954;6.968;2023-02-11T01:04:27;102871.63;;;14.57;42.36
18784;BME280;9520;50.954;6.968;2023-02-11T01:04:56;102884.94;;;14.66;42.21
18784;BME280;9520;50.954;6.968;2023-02-11T01:05:20;102871.66;;;14.61;42.40
18784;BME280;9520;50.954;6.968;2023-02-11T01:05:44;102881.38;;;14.65;42.31
18784;BME280;9520;50.954;6.968;2023-02-11T01:06:08;102878.72;;;14.65;42.30
18784;BME280;9520;50.954;6.968;2023-02-11T01:06:32;102871.66;;;14.58;42.27
18784;BME280;9520;50.954;6.968;2023-02-11T01:06:54;102882.22;;;14.55;42.44
18784;BME280;9520;50.954;6.968;2023-02-11T01:07:16;102879.59;;;14.55;42.48
18784;BME280;9520;50.954;6.968;2023-02-11T01:07:37;102883.16;;;14.57;42.54
18784;BME280;9520;50.954;6.968;2023-02-11T01:08:01;102887.56;;;14.58;42.40
18784;BME280;9520;50.954;6.968;2023-02-11T01:08:24;102884.91;;;14.58;42.46
18784;BME280;9520;50.954;6.968;2023-02-11T01:08:46;102886.69;;;14.58;42.46
18784;BME280;9520;50.954;6.968;2023-02-11T01:09:07;102884.03;;;14.58;42.52
18784;BME280;9520;50.954;6.968;2023-02-11T01:09:31;102874.28;;;14.52;42.52
18784;BME280;9520;50.954;6.968;2023-02-11T01:09:54;102884.94;;;14.63;42.42
18784;BME280;9520;50.954;6.968;2023-02-11T01:10:17;102884.03;;;14.62;42.35
18784;BME280;9520;50.954;6.968;2023-02-11T01:10:39;102883.13;;;14.60;42.44
18784;BME280;9520;50.954;6.968;2023-02-11T01:11:05;102885.78;;;14.60;42.47
18784;BME280;9520;50.954;6.968;2023-02-11T01:11:29;102887.56;;;14.58;42.46
18784;BME280;9520;50.954;6.968;2023-02-11T01:11:50;102876.06;;;14.55;42.56
18784;BME280;9520;50.954;6.968;2023-02-11T01:12:12;102884.88;;;14.55;42.54
18784;BME280;9520;50.954;6.968;2023-02-11T01:12:35;102889.34;;;14.58;42.48
18784;BME280;9520;50.954;6.968;2023-02-11T01:12:59;102892.88;;;14.54;42.27
18784;BME280;9520;50.954;6.968;2023-02-11T01:13:22;102892.84;;;14.51;42.54
18784;BME280;9520;50.954;6.968;2023-02-11T01:13:47;102898.16;;;14.49;42.67
18784;BME280;9520;50.954;6.968;2023-02-11T01:14:09;102889.28;;;14.43;42.61
18784;BME280;9520;50.954;6.968;2023-02-11T01:14:32;102891.03;;;14.41;42.73
18784;BME280;9520;50.954;6.968;2023-02-11T01:14:56;102902.53;;;14.38;42.84
18784;BME280;9520;50.954;6.968;2023-02-11T01:15:19;102880.34;;;14.33;42.82
18784;BME280;9520;50.954;6.968;2023-02-11T01:15:44;102835.97;;;14.08;42.76
18784;BME280;9520;50.954;6.968;2023-02-11T01:16:09;102895.47;;;14.40;42.85
18784;BME280;9520;50.954;6.968;2023-02-11T01:16:36;102896.34;;;14.39;42.93
18784;BME280;9520;50.954;6.968;2023-02-11T01:16:59;102814.66;;;13.93;42.95
18784;BME280;9520;50.954;6.968;2023-02-11T01:17:29;102895.47;;;14.43;42.88
18784;BME280;9520;50.954;6.968;2023-02-11T01:17:52;102833.31;;;14.08;42.80
18784;BME280;9520;50.954;6.968;2023-02-11T01:18:19;102827.16;;;14.06;42.73
18784;BME280;9520;50.954;6.968;2023-02-11T01:18:45;102896.34;;;14.38;42.65
18784;BME280;9520;50.954;6.968;2023-02-11T01:19:11;102892.81;;;14.43;42.75
18784;BME280;9520;50.954;6.968;2023-02-11T01:19:39;102893.72;;;14.44;42.74
18784;BME280;9520;50.954;6.968;2023-02-11T01:20:03;102891.06;;;14.44;42.73
18784;BME280;9520;50.954;6.968;2023-02-11T01:20:29;102901.69;;;14.45;42.68
18784;BME280;9520;50.954;6.968;2023-02-11T01:21:02;102853.72;;;14.13;42.73
18784;BME280;9520;50.954;6.968;2023-02-11T01:21:28;102899.88;;;14.41;42.94
18784;BME280;9520;50.954;6.968;2023-02-11T01:21:53;102901.66;;;14.42;42.86
18784;BME280;9520;50.954;6.968;2023-02-11T01:22:15;102888.25;;;14.22;43.04
18784;BME280;9520;50.954;6.968;2023-02-11T01:22:48;102890.03;;;14.23;43.11
18784;BME280;9520;50.954;6.968;2023-02-11T01:23:14;102895.38;;;14.28;43.10
18784;BME280;9520;50.954;6.968;2023-02-11T01:23:38;102844.78;;;13.98;43.16
18784;BME280;9520;50.954;6.968;2023-02-11T01:24:09;102873.19;;;14.17;43.05
18784;BME280;9520;50.954;6.968;2023-02-11T01:24:32;102898.94;;;14.33;43.09
18784;BME280;9520;50.954;6.968;2023-02-11T01:24:54;102839.47;;;13.98;43.00
18784;BME280;9520;50.954;6.968;2023-02-11T01:25:18;102894.50;;;14.32;42.99
18784;BME280;9520;50.954;6.968;2023-02-11T01:25:44;102869.66;;;14.18;42.96
18784;BME280;9520;50.954;6.968;2023-02-11T01:26:07;102898.94;;;14.33;43.14
18784;BME280;9520;50.954;6.968;2023-02-11T01:26:31;102873.22;;;14.20;43.05
18784;BME280;9520;50.954;6.968;2023-02-11T01:27:04;102898.97;;;14.36;43.04
18784;BME280;9520;50.954;6.968;2023-02-11T01:27:29;102902.47;;;14.31;43.03
18784;BME280;9520;50.954;6.968;2023-02-11T01:27:54;102843.00;;;13.98;43.04
18784;BME280;9520;50.954;6.968;2023-02-11T01:28:18;102814.66;;;13.85;43.01
18784;BME280;9520;50.954;6.968;2023-02-11T01:28:43;102891.84;;;14.34;42.92
18784;BME280;9520;50.954;6.968;2023-02-11T01:29:06;102893.66;;;14.35;43.02
18784;BME280;9520;50.954;6.968;2023-02-11T01:29:28;102898.09;;;14.37;42.91
18784;BME280;9520;50.954;6.968;2023-02-11T01:29:51;102893.66;;;14.36;42.89
18784;BME280;9520;50.954;6.968;2023-02-11T01:30:20;102877.69;;;14.28;42.96
18784;BME280;9520;50.954;6.968;2023-02-11T01:31:01;102883.06;;;14.39;42.87
18784;BME280;9520;50.954;6.968;2023-02-11T01:31:27;102874.13;;;14.28;42.91
18784;BME280;9520;50.954;6.968;2023-02-11T01:32:06;102896.34;;;14.41;42.87
18784;BME280;9520;50.954;6.968;2023-02-11T01:32:34;102884.84;;;14.40;42.89
18784;BME280;9520;50.954;6.968;2023-02-11T01:33:02;102883.06;;;14.38;42.88
18784;BME280;9520;50.954;6.968;2023-02-11T01:33:27;102879.47;;;14.34;42.98
18784;BME280;9520;50.954;6.968;2023-02-11T01:34:00;102888.34;;;14.36;42.96
18784;BME280;9520;50.954;6.968;2023-02-11T01:34:27;102882.13;;;14.34;42.98
18784;BME280;9520;50.954;6.968;2023-02-11T01:34:51;102879.47;;;14.34;43.06
18784;BME280;9520;50.954;6.968;2023-02-11T01:35:13;102887.44;;;14.34;42.93
18784;BME280;9520;50.954;6.968;2023-02-11T01:35:36;102883.91;;;14.35;42.93
18784;BME280;9520;50.954;6.968;2023-02-11T01:36:01;102882.13;;;14.34;42.95
18784;BME280;9520;50.954;6.968;2023-02-11T01:36:26;102873.22;;;14.20;43.02
18784;BME280;9520;50.954;6.968;2023-02-11T01:36:49;102888.31;;;14.30;42.95
18784;BME280;9520;50.954;6.968;2023-02-11T01:38:14;102874.09;;;14.20;43.03
18784;BME280;9520;50.954;6.968;2023-02-11T01:38:39;102901.59;;;14.33;42.98
18784;BME280;9520;50.954;6.968;2023-02-11T01:39:02;102897.19;;;14.35;43.11
18784;BME280;9520;50.954;6.968;2023-02-11T01:39:24;102879.38;;;14.17;43.17
18784;BME280;9520;50.954;6.968;2023-02-11T01:39:47;102898.03;;;14.31;43.02
18784;BME280;9520;50.954;6.968;2023-02-11T01:40:14;102821.72;;;13.84;43.01
18784;BME280;9520;50.954;6.968;2023-02-11T01:40:36;102893.56;;;14.22;43.22
18784;BME280;9520;50.954;6.968;2023-02-11T01:41:00;102902.47;;;14.29;43.27
18784;BME280;9520;50.954;6.968;2023-02-11T01:41:24;102903.34;;;14.28;43.31
18784;BME280;9520;50.954;6.968;2023-02-11T01:41:51;102901.56;;;14.27;43.24
18784;BME280;9520;50.954;6.968;2023-02-11T01:42:14;102898.03;;;14.31;43.31
18784;BME280;9520;50.954;6.968;2023-02-11T01:42:37;102877.63;;;14.15;43.20
18784;BME280;9520;50.954;6.968;2023-02-11T01:42:59;102897.16;;;14.31;43.23
18784;BME280;9520;50.954;6.968;2023-02-11T01:43:22;102850.97;;;13.98;43.17
18784;BME280;9520;50.954;6.968;2023-02-11T01:43:48;102909.56;;;14.33;43.13
18784;BME280;9520;50.954;6.968;2023-02-11T01:44:24;102907.81;;;14.35;43.04
18784;BME280;9520;50.954;6.968;2023-02-11T01:44:48;102850.13;;;14.04;43.14
18784;BME280;9520;50.954;6.968;2023-02-11T01:45:44;102905.13;;;14.32;43.25
18784;BME280;9520;50.954;6.968;2023-02-11T01:46:20;102906.91;;;14.30;43.11
18784;BME280;9520;50.954;6.968;2023-02-11T01:46:46;102917.47;;;14.27;43.22
18784;BME280;9520;50.954;6.968;2023-02-11T01:47:12;102919.25;;;14.28;43.10
18784;BME280;9520;50.954;6.968;2023-02-11T01:47:34;102913.06;;;14.24;43.11
18784;BME280;9520;50.954;6.968;2023-02-11T01:47:58;102917.47;;;14.22;43.23
18784;BME280;9520;50.954;6.968;2023-02-11T01:48:25;102912.16;;;14.24;43.42
18784;BME280;9520;50.954;6.968;2023-02-11T01:48:52;102923.66;;;14.26;43.35
18784;BME280;9520;50.954;6.968;2023-02-11T01:49:18;102822.56;;;13.79;43.34
18784;BME280;9520;50.954;6.968;2023-02-11T01:49:44;102917.50;;;14.25;43.33
18784;BME280;9520;50.954;6.968;2023-02-11T01:50:07;102926.31;;;14.26;43.33
18784;BME280;9520;50.954;6.968;2023-02-11T01:50:30;102921.00;;;14.26;43.36
18784;BME280;9520;50.954;6.968;2023-02-11T01:50:56;102913.94;;;14.26;43.28
18784;BME280;9520;50.954;6.968;2023-02-11T01:51:24;102918.38;;;14.27;43.35
18784;BME280;9520;50.954;6.968;2023-02-11T01:51:54;102883.78;;;14.11;43.31
18784;BME280;9520;50.954;6.968;2023-02-11T01:52:20;102923.69;;;14.29;43.32
18784;BME280;9520;50.954;6.968;2023-02-11T01:52:44;102918.38;;;14.27;43.24
18784;BME280;9520;50.954;6.968;2023-02-11T01:53:09;102918.38;;;14.29;43.48
18784;BME280;9520;50.954;6.968;2023-02-11T01:53:47;102915.75;;;14.31;43.36
18784;BME280;9520;50.954;6.968;2023-02-11T01:54:31;102916.59;;;14.25;43.26
18784;BME280;9520;50.954;6.968;2023-02-11T01:55:16;102920.13;;;14.24;43.31
18784;BME280;9520;50.954;6.968;2023-02-11T01:55:57;102921.00;;;14.26;43.24
18784;BME280;9520;50.954;6.968;2023-02-11T01:56:41;102921.91;;;14.26;43.43
18784;BME280;9520;50.954;6.968;2023-02-11T01:57:25;102916.56;;;14.19;43.32
18784;BME280;9520;50.954;6.968;2023-02-11T01:57:53;102910.34;;;14.17;43.34
18784;BME280;9520;50.954;6.968;2023-02-11T01:58:19;102916.53;;;14.16;43.40
18784;BME280;9520;50.954;6.968;2023-02-11T01:58:44;102913.84;;;14.13;43.51
18784;BME280;9520;50.954;6.968;2023-02-11T01:59:11;102912.09;;;14.10;43.64
18784;BME280;9520;50.954;6.968;2023-02-11T01:59:44;102913.84;;;14.13;43.67
18784;BME280;9520;50.954;6.968;2023-02-11T02:00:12;102913.84;;;14.13;43.93
18784;BME280;9520;50.954;6.968;2023-02-11T02:00:37;102912.97;;;14.12;43.86
18784;BME280;9520;50.954;6.968;2023-02-11T02:01:03;102842.84;;;13.71;43.76
18784;BME280;9520;50.954;6.968;2023-02-11T02:01:28;102912.06;;;14.06;43.87
18784;BME280;9520;50.954;6.968;2023-02-11T02:01:59;102910.28;;;14.08;43.76
18784;BME280;9520;50.954;6.968;2023-02-11T02:02:27;102918.28;;;14.11;43.75
18784;BME280;9520;50.954;6.968;2023-02-11T02:02:54;102913.84;;;14.13;43.61
18784;BME280;9520;50.954;6.968;2023-02-11T02:03:23;102907.69;;;14.17;43.65
18784;BME280;9520;50.954;6.968;2023-02-11T02:03:46;102904.13;;;14.16;43.58
18784;BME280;9520;50.954;6.968;2023-02-11T02:04:10;102905.03;;;14.14;43.46
18784;BME280;9520;50.954;6.968;2023-02-11T02:04:37;102900.59;;;14.16;43.66
18784;BME280;9520;50.954;6.968;2023-02-11T02:05:19;102896.19;;;14.18;43.51
18784;BME280;9520;50.954;6.968;2023-02-11T02:05:49;102897.94;;;14.16;43.48
18784;BME280;9520;50.954;6.968;2023-02-11T02:06:17;102899.75;;;14.20;43.42
18784;BME280;9520;50.954;6.968;2023-02-11T02:06:45;102900.59;;;14.13;43.46
18784;BME280;9520;50.954;6.968;2023-02-11T02:07:18;102902.38;;;14.17;43.60
18784;BME280;9520;50.954;6.968;2023-02-11T02:07:51;102903.28;;;14.19;43.39
18784;BME280;9520;50.954;6.968;2023-02-11T02:08:20;102910.38;;;14.23;43.45
18784;BME280;9520;50.954;6.968;2023-02-11T02:08:51;102830.53;;;13.83;43.43
18784;BME280;9520;50.954;6.968;2023-02-11T02:09:21;102905.13;;;14.29;43.29
18784;BME280;9520;50.954;6.968;2023-02-11T02:09:48;102909.53;;;14.28;43.31
18784;BME280;9520;50.954;6.968;2023-02-11T02:10:16;102886.47;;;14.21;43.38
18784;BME280;9520;50.954;6.968;2023-02-11T02:10:44;102901.56;;;14.32;43.33
18784;BME280;9520;50.954;6.968;2023-02-11T02:11:10;102885.59;;;14.21;43.28
18784;BME280;9520;50.954;6.968;2023-02-11T02:11:32;102888.28;;;14.25;43.20
18784;BME280;9520;50.954;6.968;2023-02-11T02:11:54;102868.75;;;14.17;43.18
18784;BME280;9520;50.954;6.968;2023-02-11T02:12:16;102904.22;;;14.32;43.24
18784;BME280;9520;50.954;6.968;2023-02-11T02:12:44;102900.69;;;14.31;43.21
18784;BME280;9520;50.954;6.968;2023-02-11T02:13:06;102894.47;;;14.24;43.34
18784;BME280;9520;50.954;6.968;2023-02-11T02:13:30;102909.53;;;14.28;43.19
18784;BME280;9520;50.954;6.968;2023-02-11T02:13:54;102906.91;;;14.30;43.21
18784;BME280;9520;50.954;6.968;2023-02-11T02:14:17;102911.31;;;14.30;43.34
18784;BME280;9520;50.954;6.968;2023-02-11T02:14:41;102904.19;;;14.27;43.32